Time;durP1;ratioP1;P1;durP2;ratioP2;P2;SDS_P1;SDS_P2;PMS_P1;PMS_P2;Temp;Humidity;BMP_temperature;BMP_pressure;BME280_temperature;BME280_humidity;BME280_pressure;Samples;Min_cycle;Max_cycle;Signal;HPM_P1;HPM_P2
2022/03/10 00:02:18;;;;;;;17.57;14.57;;;;;;;3.24;73.63;102458.56;4999683;28;20276;-53
2022/03/10 00:04:46;;;;;;;18.50;13.83;;;;;;;3.22;73.82;102461.88;5006928;28;20225;-52
2022/03/10 00:07:13;;;;;;;18.30;14.30;;;;;;;3.24;73.76;102474.13;5004067;28;20245;-52
2022/03/10 00:09:39;;;;;;;17.70;13.43;;;;;;;3.26;73.77;102463.81;5004695;28;20241;-52
2022/03/10 00:12:06;;;;;;;19.07;14.77;;;;;;;3.26;73.42;102464.72;5004159;28;20335;-53
2022/03/10 00:14:33;;;;;;;18.73;13.70;;;;;;;3.43;73.82;102467.38;5002671;28;20875;-52
2022/03/10 00:16:59;;;;;;;17.83;13.20;;;;;;;3.40;73.76;102470.69;5005943;28;20320;-52
2022/03/10 00:19:26;;;;;;;17.30;13.13;;;;;;;3.32;74.18;102485.84;5004498;28;20233;-52
2022/03/10 00:21:53;;;;;;;18.33;13.47;;;;;;;3.25;74.90;102486.28;5003278;28;20287;-52
2022/03/10 00:24:20;;;;;;;16.97;14.23;;;;;;;3.48;77.64;102481.53;5006705;28;20244;-53
2022/03/10 00:26:46;;;;;;;17.70;13.80;;;;;;;3.39;75.96;102478.41;5005433;28;20233;-53
2022/03/10 00:29:12;;;;;;;19.27;12.57;;;;;;;3.62;77.95;102485.78;5004273;28;20279;-53
2022/03/10 00:31:40;;;;;;;17.23;12.60;;;;;;;3.98;74.65;102491.19;5006815;28;20304;-52
2022/03/10 00:34:06;;;;;;;15.67;11.90;;;;;;;4.07;74.53;102497.78;5003895;28;20784;-52
2022/03/10 00:36:32;;;;;;;15.47;12.60;;;;;;;4.29;75.50;102489.41;5002109;28;20265;-52
2022/03/10 00:39:00;;;;;;;16.00;12.20;;;;;;;4.58;74.11;102489.16;5001438;28;20237;-53
2022/03/10 00:41:27;;;;;;;17.23;11.07;;;;;;;4.88;72.91;102497.59;5001481;28;20241;-53
2022/03/10 00:43:53;;;;;;;16.97;12.30;;;;;;;5.07;72.06;102495.13;5006036;28;20248;-53
2022/03/10 00:46:19;;;;;;;16.80;12.57;;;;;;;4.88;69.33;102502.81;5002018;28;20668;-53
2022/03/10 00:48:46;;;;;;;15.90;12.47;;;;;;;4.64;69.56;102500.75;5005395;28;20840;-52
2022/03/10 00:51:12;;;;;;;17.63;12.90;;;;;;;4.37;70.46;102495.00;5004250;28;20233;-53
2022/03/10 00:53:39;;;;;;;16.17;11.93;;;;;;;4.44;70.68;102499.72;5005790;28;20272;-53
2022/03/10 00:56:06;;;;;;;17.70;12.93;;;;;;;4.47;71.13;102499.00;5008900;28;20638;-53
2022/03/10 00:58:33;;;;;;;15.73;11.93;;;;;;;4.62;71.01;102502.38;5008202;28;20296;-53
2022/03/10 01:00:59;;;;;;;21.47;13.63;;;;;;;4.68;70.89;102499.22;5011960;28;20237;-55
2022/03/10 01:03:25;;;;;;;15.37;12.20;;;;;;;4.82;69.40;102507.72;5007118;28;20252;-53
2022/03/10 01:05:52;;;;;;;15.60;12.00;;;;;;;4.85;71.16;102508.78;5006105;28;20233;-54
2022/03/10 01:08:19;;;;;;;14.47;11.17;;;;;;;5.12;70.74;102509.25;5004991;28;20245;-52
2022/03/10 01:10:45;;;;;;;21.77;15.23;;;;;;;4.62;69.09;102507.59;5005310;28;20264;-52
2022/03/10 01:13:18;;;;;;;16.73;12.93;;;;;;;4.60;69.90;102519.63;5005526;28;20245;-52
2022/03/10 01:15:46;;;;;;;19.03;14.10;;;;;;;4.49;69.25;102523.34;5004543;28;20272;-52
2022/03/10 01:18:13;;;;;;;18.67;14.47;;;;;;;4.46;67.90;102520.63;5005153;28;20235;-53
2022/03/10 01:20:39;;;;;;;17.93;14.40;;;;;;;4.10;68.99;102523.03;5005120;28;20311;-54
2022/03/10 01:23:06;;;;;;;18.03;14.27;;;;;;;3.85;69.32;102527.69;5009256;28;21028;-52
2022/03/10 01:25:32;;;;;;;20.17;15.37;;;;;;;3.59;69.21;102522.84;5005452;28;20241;-57
2022/03/10 01:27:58;;;;;;;24.80;16.47;;;;;;;3.25;69.83;102535.59;5005493;28;20582;-55
2022/03/10 01:30:26;;;;;;;22.40;15.93;;;;;;;2.95;71.50;102536.41;5004433;28;20236;-51
2022/03/10 01:32:52;;;;;;;22.53;15.73;;;;;;;2.75;72.36;102530.06;5004661;28;20236;-54
2022/03/10 01:35:19;;;;;;;22.67;16.37;;;;;;;2.66;73.94;102534.69;5005339;28;20423;-54
2022/03/10 01:37:45;;;;;;;20.57;16.60;;;;;;;2.59;75.03;102528.22;5000979;28;20721;-53
2022/03/10 01:40:14;;;;;;;21.73;15.33;;;;;;;2.42;76.33;102524.59;5004858;28;20710;-52
2022/03/10 01:42:40;;;;;;;28.07;18.53;;;;;;;2.33;77.36;102514.59;5005331;28;20240;-53
2022/03/10 01:45:08;;;;;;;19.67;15.03;;;;;;;2.24;77.87;102515.72;5005532;28;20776;-53
2022/03/10 01:47:36;;;;;;;20.17;15.07;;;;;;;2.20;78.30;102519.81;5003255;28;20795;-53
2022/03/10 01:50:02;;;;;;;19.27;15.63;;;;;;;2.15;78.54;102519.53;5004543;28;20240;-53
2022/03/10 01:52:28;;;;;;;19.53;15.53;;;;;;;2.11;78.91;102521.88;5004225;28;20307;-52
2022/03/10 01:54:56;;;;;;;21.33;16.77;;;;;;;2.04;78.83;102517.09;5004101;28;20248;-52
2022/03/10 01:57:23;;;;;;;19.57;15.03;;;;;;;2.05;79.75;102518.88;5003748;28;20800;-53
2022/03/10 01:59:49;;;;;;;20.37;15.20;;;;;;;2.05;79.34;102521.47;4998357;28;20329;-53
2022/03/10 02:02:15;;;;;;;20.63;14.43;;;;;;;2.04;79.91;102519.69;5004589;28;20728;-53
2022/03/10 02:04:43;;;;;;;20.30;15.17;;;;;;;2.06;80.68;102521.56;5002969;28;20664;-52
2022/03/10 02:10:16;;;;;;;17.70;14.20;;;;;;;2.07;79.83;102528.53;5003949;28;20314;-53
2022/03/10 02:12:41;;;;;;;23.23;14.67;;;;;;;1.96;81.13;102531.25;5003734;28;20765;-53
2022/03/10 02:17:56;;;;;;;19.57;15.30;;;;;;;1.99;82.56;102526.25;5000172;28;20324;-53
2022/03/10 02:20:23;;;;;;;19.03;15.20;;;;;;;2.00;83.10;102525.44;5001289;28;20244;-53
2022/03/10 02:22:51;;;;;;;15.47;13.30;;;;;;;1.97;82.75;102530.47;5004596;28;20249;-53
2022/03/10 02:25:21;;;;;;;15.97;13.33;;;;;;;2.02;83.28;102532.53;5005491;28;20264;-53
2022/03/10 02:27:50;;;;;;;20.13;15.50;;;;;;;2.00;83.40;102536.75;5005756;28;20229;-54
2022/03/10 02:30:16;;;;;;;20.50;14.33;;;;;;;1.95;83.37;102542.41;5003341;28;20240;-54
2022/03/10 02:32:44;;;;;;;21.13;14.13;;;;;;;1.89;84.12;102541.22;5001247;28;20236;-53
2022/03/10 02:35:10;;;;;;;18.50;13.20;;;;;;;1.94;83.57;102538.03;5001053;28;20232;-54
2022/03/10 02:37:37;;;;;;;20.00;14.47;;;;;;;1.94;82.85;102556.19;5002676;28;20334;-54
2022/03/10 02:40:06;;;;;;;21.63;14.97;;;;;;;1.96;83.25;102550.28;5002397;28;20324;-52
2022/03/10 02:42:32;;;;;;;19.20;14.97;;;;;;;1.93;82.63;102560.47;5000273;28;20269;-50
2022/03/10 02:44:59;;;;;;;22.53;14.90;;;;;;;1.81;83.11;102557.97;5002959;28;20236;-51
2022/03/10 02:47:25;;;;;;;23.47;15.03;;;;;;;1.79;83.08;102558.66;5002480;28;20231;-52
2022/03/10 02:49:51;;;;;;;19.70;14.17;;;;;;;1.66;83.94;102562.19;4999577;28;20243;-53
2022/03/10 02:52:18;;;;;;;20.47;14.57;;;;;;;1.59;84.03;102560.00;5004538;28;20255;-52
2022/03/10 02:54:44;;;;;;;20.13;14.67;;;;;;;1.53;83.56;102565.66;5002586;28;20318;-51
2022/03/10 02:57:13;;;;;;;21.07;15.40;;;;;;;1.52;83.89;102561.28;5000001;28;20686;-53
2022/03/10 02:59:40;;;;;;;19.20;15.30;;;;;;;1.49;83.63;102570.53;5000898;28;20309;-52
2022/03/10 03:02:07;;;;;;;19.67;12.93;;;;;;;1.41;84.21;102560.59;5002005;28;21043;-53
2022/03/10 03:04:33;;;;;;;19.53;14.83;;;;;;;1.39;84.59;102561.28;5000964;28;20286;-53
2022/03/10 03:06:59;;;;;;;20.07;14.10;;;;;;;1.42;85.30;102556.28;5002301;28;20701;-52
2022/03/10 03:09:26;;;;;;;21.27;14.33;;;;;;;1.41;85.27;102550.22;5002506;28;20244;-53
2022/03/10 03:11:52;;;;;;;19.03;14.33;;;;;;;1.36;85.57;102561.06;5001382;28;20252;-53
2022/03/10 03:14:23;;;;;;;17.67;14.00;;;;;;;1.37;86.54;102558.59;5003835;28;20263;-52
2022/03/10 03:16:49;;;;;;;21.60;14.63;;;;;;;1.42;86.88;102556.28;5004281;28;20330;-52
2022/03/10 03:19:15;;;;;;;20.57;13.83;;;;;;;1.36;87.08;102567.13;5005226;28;20271;-54
2022/03/10 03:21:42;;;;;;;21.07;14.27;;;;;;;1.36;87.32;102561.94;5006644;28;20620;-50
2022/03/10 03:24:08;;;;;;;20.20;14.60;;;;;;;1.32;87.06;102565.13;5003965;28;20267;-54
2022/03/10 03:26:35;;;;;;;22.40;14.57;;;;;;;1.55;90.05;102560.59;5003425;28;20233;-53
2022/03/10 03:29:01;;;;;;;23.23;15.70;;;;;;;1.53;88.73;102559.59;5000884;28;20268;-53
2022/03/10 03:31:29;;;;;;;23.20;14.90;;;;;;;1.79;87.50;102559.59;5002574;28;20256;-53
2022/03/10 03:33:55;;;;;;;22.47;14.30;;;;;;;1.74;86.50;102560.97;5004384;28;20311;-53
2022/03/10 03:36:21;;;;;;;21.77;14.93;;;;;;;2.44;87.25;102564.50;5007273;28;20256;-53
2022/03/10 03:38:48;;;;;;;25.90;15.27;;;;;;;2.78;84.14;102575.22;5006773;28;20244;-53
2022/03/10 03:41:14;;;;;;;28.23;15.67;;;;;;;3.66;81.49;102580.34;5007051;28;20313;-53
2022/03/10 03:43:40;;;;;;;22.60;15.63;;;;;;;3.67;78.23;102579.53;5006991;28;20309;-53
2022/03/10 03:46:07;;;;;;;25.90;14.90;;;;;;;4.09;77.15;102575.81;5006201;28;20720;-54
2022/03/10 03:48:35;;;;;;;24.07;16.33;;;;;;;4.09;75.89;102577.53;5006069;28;20287;-53
2022/03/10 03:51:01;;;;;;;26.07;15.87;;;;;;;3.97;76.43;102582.97;5003927;28;20226;-54
2022/03/10 03:53:28;;;;;;;22.53;14.70;;;;;;;3.91;79.08;102588.69;5004469;28;20245;-53
2022/03/10 03:55:54;;;;;;;22.93;16.17;;;;;;;4.07;75.33;102586.16;5007432;28;20674;-53
2022/03/10 03:58:20;;;;;;;22.00;15.03;;;;;;;4.24;76.28;102588.75;5006001;28;20261;-53
2022/03/10 04:00:47;;;;;;;24.83;15.33;;;;;;;4.36;75.95;102583.34;5006084;28;20994;-55
2022/03/10 04:03:13;;;;;;;25.03;15.60;;;;;;;4.37;75.86;102588.63;5007509;28;20287;-53
2022/03/10 04:05:41;;;;;;;21.43;15.37;;;;;;;4.38;73.66;102592.13;5006174;28;20260;-52
2022/03/10 04:08:07;;;;;;;21.97;14.10;;;;;;;4.39;73.00;102589.63;5006568;28;20241;-52
2022/03/10 04:10:34;;;;;;;22.87;15.33;;;;;;;4.44;75.21;102588.16;5005804;28;20282;-52
2022/03/10 04:13:00;;;;;;;22.13;15.47;;;;;;;3.79;73.60;102596.72;5001605;28;20294;-53
2022/03/10 04:15:27;;;;;;;24.37;14.53;;;;;;;3.99;76.30;102590.00;5004477;28;20256;-53
2022/03/10 04:17:53;;;;;;;28.23;15.83;;;;;;;3.94;73.73;102607.06;5005635;28;20263;-53
2022/03/10 04:20:20;;;;;;;23.93;15.57;;;;;;;3.85;74.63;102603.06;5005661;28;20760;-52
2022/03/10 04:22:47;;;;;;;21.37;14.83;;;;;;;3.98;74.68;102585.63;5007178;28;20771;-53
2022/03/10 04:25:14;;;;;;;23.00;14.23;;;;;;;4.08;74.05;102592.25;5004456;28;20236;-53
2022/03/10 04:27:41;;;;;;;22.07;15.10;;;;;;;4.04;73.63;102596.38;5004384;28;20300;-53
2022/03/10 04:30:08;;;;;;;19.40;14.47;;;;;;;4.25;75.37;102586.25;5000687;28;20336;-53
2022/03/10 04:32:40;;;;;;;25.37;15.93;;;;;;;4.39;71.09;102605.22;5006603;28;20786;-52
2022/03/10 04:35:07;;;;;;;22.40;15.23;;;;;;;4.57;73.78;102597.50;5003604;28;20253;-52
2022/03/10 04:37:34;;;;;;;24.10;14.93;;;;;;;4.42;71.46;102599.25;5007000;28;20229;-53
2022/03/10 04:40:01;;;;;;;24.20;15.20;;;;;;;4.31;73.18;102607.38;5006083;28;20233;-53
2022/03/10 04:42:28;;;;;;;21.90;16.23;;;;;;;4.28;72.13;102604.63;5006059;28;20229;-53
2022/03/10 04:44:54;;;;;;;23.20;14.53;;;;;;;4.30;74.41;102610.78;5007411;28;20240;-53
2022/03/10 04:47:21;;;;;;;20.10;14.20;;;;;;;4.39;74.76;102610.41;5006956;28;20261;-53
2022/03/10 04:49:47;;;;;;;22.73;16.30;;;;;;;4.40;74.79;102617.41;5006894;28;20233;-54
2022/03/10 04:52:13;;;;;;;21.80;15.23;;;;;;;4.35;72.39;102620.53;5002391;28;20315;-54
2022/03/10 04:54:40;;;;;;;23.60;15.37;;;;;;;4.42;72.11;102614.88;5007165;28;20278;-53
2022/03/10 04:57:07;;;;;;;18.60;14.47;;;;;;;4.36;71.95;102620.66;5008078;28;20649;-53
2022/03/10 04:59:34;;;;;;;23.83;15.70;;;;;;;4.39;73.60;102614.69;5007181;28;20320;-53
2022/03/10 05:02:00;;;;;;;21.17;14.80;;;;;;;4.33;73.59;102615.28;5006320;28;20653;-53
2022/03/10 05:04:27;;;;;;;20.97;15.10;;;;;;;4.23;72.85;102613.88;5005365;28;21352;-53
2022/03/10 05:06:53;;;;;;;25.30;15.60;;;;;;;4.10;71.89;102614.00;5005848;28;20233;-53
2022/03/10 05:09:20;;;;;;;24.67;16.70;;;;;;;4.22;72.68;102609.50;5003971;28;20241;-53
2022/03/10 05:11:46;;;;;;;28.73;15.53;;;;;;;4.43;74.43;102611.47;5004151;28;20310;-53
2022/03/10 05:14:13;;;;;;;22.43;15.30;;;;;;;4.46;74.56;102606.44;5004472;28;20260;-53
2022/03/10 05:16:40;;;;;;;27.40;17.03;;;;;;;4.28;73.39;102611.50;5004730;28;20260;-53
2022/03/10 05:19:06;;;;;;;27.93;15.00;;;;;;;4.44;73.90;102613.25;5005003;28;20662;-53
2022/03/10 05:21:32;;;;;;;29.07;17.30;;;;;;;4.18;72.10;102622.25;5005986;28;20985;-52
2022/03/10 05:23:59;;;;;;;23.17;15.90;;;;;;;4.11;73.00;102610.63;5006364;28;20709;-53
2022/03/10 05:26:25;;;;;;;27.77;17.53;;;;;;;3.91;72.45;102619.88;5003546;28;20268;-53
2022/03/10 05:28:51;;;;;;;23.90;15.20;;;;;;;4.27;75.24;102615.81;5006211;28;20229;-53
2022/03/10 05:31:19;;;;;;;29.03;18.60;;;;;;;3.89;76.61;102629.28;5005224;28;20288;-53
2022/03/10 05:33:45;;;;;;;28.70;16.57;;;;;;;4.01;73.50;102627.38;5007825;28;20294;-52
2022/03/10 05:36:12;;;;;;;27.20;15.63;;;;;;;3.83;76.29;102624.66;5006305;28;20235;-52
2022/03/10 05:38:38;;;;;;;26.33;16.67;;;;;;;4.04;76.30;102624.06;5007611;28;20286;-54
2022/03/10 05:41:05;;;;;;;23.10;16.67;;;;;;;4.20;74.89;102618.00;5005136;28;20268;-52
2022/03/10 05:43:31;;;;;;;26.40;17.23;;;;;;;4.00;73.35;102624.69;5007727;28;20240;-53
2022/03/10 05:45:57;;;;;;;28.03;17.13;;;;;;;3.59;74.50;102631.94;5007523;28;20260;-53
2022/03/10 05:48:25;;;;;;;25.73;16.40;;;;;;;3.49;74.96;102628.72;5005815;28;20256;-52
2022/03/10 05:50:52;;;;;;;26.10;17.47;;;;;;;3.50;75.26;102633.09;5006833;28;20229;-52
2022/03/10 05:53:18;;;;;;;30.63;16.83;;;;;;;3.65;78.14;102630.47;5007433;28;20235;-53
2022/03/10 05:55:45;;;;;;;24.27;16.73;;;;;;;3.61;77.58;102639.78;5009114;28;20272;-52
2022/03/10 05:58:11;;;;;;;24.70;15.90;;;;;;;3.76;75.45;102643.28;5002268;28;20241;-53
2022/03/10 06:00:37;;;;;;;22.60;16.07;;;;;;;3.61;77.65;102644.09;5005233;28;20264;-53
2022/03/10 06:03:04;;;;;;;31.60;17.37;;;;;;;3.90;75.53;102641.50;5006670;28;20258;-52
2022/03/10 06:05:32;;;;;;;28.13;17.33;;;;;;;3.55;77.04;102637.75;5006349;28;20276;-53
2022/03/10 06:07:58;;;;;;;26.07;16.63;;;;;;;3.96;77.88;102635.72;5006882;28;20260;-53
2022/03/10 06:10:25;;;;;;;26.20;17.73;;;;;;;3.74;75.01;102639.69;5007527;28;20271;-52
2022/03/10 06:12:51;;;;;;;27.03;16.77;;;;;;;3.74;77.62;102642.31;5007581;28;20279;-54
2022/03/10 06:15:18;;;;;;;26.30;16.60;;;;;;;3.91;77.09;102652.78;5003934;28;20241;-54
2022/03/10 06:17:44;;;;;;;27.67;17.50;;;;;;;3.69;78.93;102658.44;5004828;28;20236;-53
2022/03/10 06:20:11;;;;;;;29.27;18.77;;;;;;;3.68;75.86;102665.31;5006254;28;20239;-54
2022/03/10 06:22:39;;;;;;;22.97;16.27;;;;;;;3.46;76.72;102662.28;5007677;28;20236;-53
2022/03/10 06:25:06;;;;;;;25.30;16.57;;;;;;;3.88;78.86;102655.19;5005383;28;20314;-52
2022/03/10 06:27:33;;;;;;;26.43;16.53;;;;;;;3.73;76.37;102666.50;5004052;28;20268;-53
2022/03/10 06:29:59;;;;;;;25.57;17.37;;;;;;;3.70;75.60;102660.22;5005513;28;20236;-52
2022/03/10 06:32:25;;;;;;;21.70;16.00;;;;;;;3.87;76.74;102669.00;5006354;28;20737;-53
2022/03/10 06:34:56;;;;;;;23.33;17.87;;;;;;;3.86;76.04;102677.56;5007636;28;20255;-53
2022/03/10 06:37:22;;;;;;;24.43;16.17;;;;;;;3.95;77.24;102675.53;5004637;28;20236;-53
2022/03/10 06:39:50;;;;;;;32.23;17.07;;;;;;;4.01;75.74;102678.47;5007288;28;20710;-53
2022/03/10 06:42:16;;;;;;;21.07;16.27;;;;;;;4.19;78.18;102682.09;5008237;28;20249;-52
2022/03/10 06:44:43;;;;;;;23.07;13.90;;;;;;;4.30;76.79;102678.41;5008911;28;20240;-52
2022/03/10 06:47:10;;;;;;;31.93;17.10;;;;;;;4.39;75.39;102683.22;5003462;28;20238;-53
2022/03/10 06:49:36;;;;;;;25.87;17.27;;;;;;;4.14;75.00;102685.25;5004811;28;20243;-54
2022/03/10 06:52:04;;;;;;;28.13;17.10;;;;;;;4.24;75.93;102683.25;5006969;28;20232;-53
2022/03/10 06:54:30;;;;;;;23.00;17.43;;;;;;;3.87;76.64;102689.78;5008451;28;20237;-53
2022/03/10 06:56:58;;;;;;;24.53;16.50;;;;;;;4.02;75.42;102698.44;5008695;28;20233;-53
2022/03/10 06:59:24;;;;;;;21.77;16.10;;;;;;;4.36;77.53;102700.38;5009534;28;20301;-52
2022/03/10 07:01:50;;;;;;;28.23;19.40;;;;;;;4.16;73.68;102694.94;5011015;28;20912;-53
2022/03/10 07:04:17;;;;;;;32.17;17.67;;;;;;;4.18;75.98;102698.53;5006448;28;20236;-53
2022/03/10 07:06:43;;;;;;;29.00;16.53;;;;;;;4.27;76.34;102696.41;5008198;28;20287;-52
2022/03/10 07:09:10;;;;;;;25.10;17.53;;;;;;;4.46;75.93;102693.16;5008852;28;20252;-50
2022/03/10 07:11:36;;;;;;;27.77;19.30;;;;;;;4.18;73.73;102695.94;5008662;28;20233;-53
2022/03/10 07:14:04;;;;;;;28.50;17.90;;;;;;;4.44;74.93;102701.69;5009243;28;20221;-53
2022/03/10 07:16:30;;;;;;;28.03;17.30;;;;;;;4.84;73.67;102698.66;5008920;28;20255;-53
2022/03/10 07:18:56;;;;;;;27.63;17.17;;;;;;;4.41;73.27;102701.50;5008417;28;20671;-53
2022/03/10 07:21:23;;;;;;;27.70;17.60;;;;;;;4.41;74.92;102712.81;5006533;28;20367;-53
2022/03/10 07:23:50;;;;;;;25.27;17.90;;;;;;;4.58;73.32;102711.16;5008238;28;20245;-53
2022/03/10 07:26:16;;;;;;;24.83;18.13;;;;;;;4.50;74.27;102720.25;5007293;28;20621;-52
2022/03/10 07:28:43;;;;;;;27.07;17.27;;;;;;;4.65;75.04;102712.38;5004497;28;20241;-52
2022/03/10 07:31:10;;;;;;;26.27;17.87;;;;;;;4.64;73.70;102715.81;5003645;28;20620;-53
2022/03/10 07:33:37;;;;;;;30.80;18.47;;;;;;;4.66;74.04;102720.25;5001661;28;20237;-53
2022/03/10 07:36:04;;;;;;;28.13;17.03;;;;;;;4.76;75.06;102719.94;5003430;28;20279;-52
2022/03/10 07:38:30;;;;;;;29.10;18.43;;;;;;;4.99;74.95;102725.53;5003687;28;20236;-53
2022/03/10 07:40:58;;;;;;;24.40;18.37;;;;;;;4.90;73.49;102725.91;5002336;28;20272;-53
2022/03/10 07:43:24;;;;;;;30.07;17.47;;;;;;;4.91;72.91;102737.22;5001579;28;20243;-53
2022/03/10 07:45:50;;;;;;;24.83;17.40;;;;;;;5.10;75.29;102726.09;5003349;28;20233;-53
2022/03/10 07:48:18;;;;;;;27.20;16.93;;;;;;;5.16;73.74;102729.94;5002055;28;20255;-53
2022/03/10 07:50:44;;;;;;;23.40;17.50;;;;;;;5.12;74.30;102727.94;5002036;28;20319;-53
2022/03/10 07:53:11;;;;;;;26.47;18.33;;;;;;;5.00;73.88;102727.31;5004341;28;20226;-53
2022/03/10 07:55:37;;;;;;;24.00;17.60;;;;;;;5.05;75.05;102731.03;5005666;28;20225;-52
2022/03/10 07:58:04;;;;;;;23.93;17.90;;;;;;;4.99;75.26;102731.63;5007212;28;20871;-53
2022/03/10 08:00:32;;;;;;;24.57;17.03;;;;;;;5.15;75.32;102732.44;5007708;28;20249;-52
2022/03/10 08:02:58;;;;;;;24.07;16.77;;;;;;;5.29;75.13;102740.97;5007395;28;21067;-52
2022/03/10 08:05:26;;;;;;;27.50;17.47;;;;;;;5.34;74.30;102740.41;5004804;28;20245;-52
2022/03/10 08:07:52;;;;;;;25.97;17.50;;;;;;;5.24;74.71;102739.03;5000854;28;20249;-54
2022/03/10 08:10:18;;;;;;;27.30;16.70;;;;;;;5.34;74.86;102740.41;5004130;28;20234;-56
2022/03/10 08:12:45;;;;;;;25.27;16.93;;;;;;;5.47;74.14;102737.63;5002998;28;20291;-51
2022/03/10 08:15:11;;;;;;;27.07;17.13;;;;;;;5.78;73.71;102733.97;5003413;28;20338;-54
2022/03/10 08:17:37;;;;;;;29.43;18.03;;;;;;;5.74;73.72;102738.16;5000714;28;20244;-53
2022/03/10 08:20:04;;;;;;;26.13;17.20;;;;;;;5.86;72.30;102747.41;5002387;28;20237;-54
2022/03/10 08:22:32;;;;;;;25.53;17.20;;;;;;;5.90;73.15;102744.16;5007387;28;20233;-54
2022/03/10 08:24:58;;;;;;;24.47;17.10;;;;;;;6.09;72.24;102741.66;5002547;28;20254;-54
2022/03/10 08:27:25;;;;;;;31.43;18.57;;;;;;;6.02;71.91;102743.91;5005692;28;20340;-54
2022/03/10 08:29:51;;;;;;;25.10;17.80;;;;;;;6.05;72.30;102749.28;5001012;28;20237;-53
2022/03/10 08:32:17;;;;;;;23.43;17.30;;;;;;;6.28;71.51;102742.56;5007066;28;20233;-53
2022/03/10 08:34:43;;;;;;;24.87;16.73;;;;;;;6.28;71.73;102742.56;5005972;28;20400;-54
2022/03/10 08:37:10;;;;;;;23.00;17.20;;;;;;;6.54;71.31;102746.44;5006432;28;20233;-54
2022/03/10 08:39:38;;;;;;;32.53;17.27;;;;;;;6.49;71.13;102745.31;5001584;28;20311;-54
2022/03/10 08:42:05;;;;;;;27.27;17.63;;;;;;;6.53;71.37;102744.63;5006014;28;20690;-53
2022/03/10 08:44:31;;;;;;;25.60;17.03;;;;;;;6.66;71.29;102749.63;5005916;28;20264;-53
2022/03/10 08:46:57;;;;;;;25.53;16.60;;;;;;;6.79;70.60;102743.28;5003574;28;20840;-53
2022/03/10 08:49:24;;;;;;;24.23;15.83;;;;;;;6.87;70.78;102747.13;4993946;28;20284;-53
2022/03/10 08:51:50;;;;;;;24.27;17.57;;;;;;;6.75;71.22;102747.47;5002651;28;20245;-54
2022/03/10 08:54:16;;;;;;;27.97;15.63;;;;;;;6.79;71.03;102743.28;5002275;28;20259;-53
2022/03/10 08:56:44;;;;;;;21.63;15.73;;;;;;;6.63;72.07;102749.47;5006823;28;20249;-51
2022/03/10 08:59:11;;;;;;;29.67;19.67;;;;;;;6.68;72.39;102748.88;5007448;28;20241;-52
2022/03/10 09:01:38;;;;;;;27.33;18.20;;;;;;;6.72;71.99;102752.53;5003864;28;20253;-53
2022/03/10 09:04:04;;;;;;;26.73;16.47;;;;;;;6.99;70.44;102757.28;5002861;28;20233;-52
2022/03/10 09:06:32;;;;;;;23.83;16.63;;;;;;;6.91;71.16;102754.28;5006069;28;20240;-51
2022/03/10 09:08:59;;;;;;;24.93;18.00;;;;;;;7.03;70.66;102748.75;5004336;28;20233;-52
2022/03/10 09:11:25;;;;;;;28.27;16.77;;;;;;;7.21;70.60;102748.69;5001742;28;20938;-53
2022/03/10 09:13:53;;;;;;;25.40;17.17;;;;;;;7.11;70.67;102753.47;4998883;28;20302;-53
2022/03/10 09:16:21;;;;;;;27.20;21.10;;;;;;;7.39;69.15;102754.72;5002297;28;21024;-53
2022/03/10 09:18:48;;;;;;;25.98;18.70;;;;;;;7.46;69.60;102761.13;5004509;28;20561;-53
2022/03/10 09:21:15;;;;;;;25.57;18.27;;;;;;;7.56;69.04;102758.09;5006742;28;20329;-54
2022/03/10 09:23:41;;;;;;;29.37;17.50;;;;;;;7.84;67.38;102760.19;4998683;28;20245;-53
2022/03/10 09:26:08;;;;;;;24.97;17.33;;;;;;;7.82;67.33;102761.81;4998339;28;20269;-52
2022/03/10 09:28:34;;;;;;;27.77;18.53;;;;;;;7.85;67.31;102762.84;5003599;28;20244;-53
2022/03/10 09:31:02;;;;;;;22.77;15.33;;;;;;;8.16;66.64;102752.78;5013114;28;20236;-53
2022/03/10 09:33:28;;;;;;;24.80;17.20;;;;;;;8.07;66.74;102764.69;5002083;28;20225;-53
2022/03/10 09:35:56;;;;;;;23.17;16.63;;;;;;;7.97;67.18;102757.28;5006353;28;20245;-53
2022/03/10 09:38:22;;;;;;;20.17;15.37;;;;;;;8.18;66.23;102758.97;5005208;28;20316;-53
2022/03/10 09:40:53;;;;;;;24.30;17.00;;;;;;;8.24;65.99;102757.50;5007169;28;20280;-53
2022/03/10 09:43:20;;;;;;;24.13;16.17;;;;;;;8.37;66.12;102756.28;5001973;28;20336;-53
2022/03/10 09:45:47;;;;;;;23.23;16.63;;;;;;;8.28;65.70;102759.44;5006678;28;20260;-53
2022/03/10 09:48:16;;;;;;;26.57;17.03;;;;;;;8.35;65.81;102764.09;5011382;28;20241;-54
2022/03/10 09:50:43;;;;;;;25.37;16.63;;;;;;;8.32;65.89;102755.22;5001918;28;20722;-53
2022/03/10 09:53:09;;;;;;;27.17;16.43;;;;;;;8.43;65.46;102763.53;4996873;28;20721;-53
2022/03/10 09:55:35;;;;;;;23.80;16.37;;;;;;;8.49;65.19;102754.19;5000202;28;20306;-54
2022/03/10 09:58:02;;;;;;;20.50;15.77;;;;;;;8.70;64.64;102748.91;5001658;28;20257;-53
2022/03/10 10:00:29;;;;;;;23.77;15.63;;;;;;;8.73;64.77;102749.03;5005569;28;20249;-53
2022/03/10 10:02:56;;;;;;;18.67;14.57;;;;;;;8.71;64.70;102760.28;5007886;28;20288;-54
2022/03/10 10:05:25;;;;;;;22.90;15.87;;;;;;;8.69;64.54;102764.56;5009006;28;20380;-54
2022/03/10 10:08:08;;;;;;;21.47;15.83;;;;;;;8.66;64.51;102767.06;5003334;28;20243;-54
2022/03/10 10:10:35;;;;;;;26.47;17.03;;;;;;;8.62;65.16;102767.78;5005748;28;20666;-53
2022/03/10 10:13:06;;;;;;;23.47;16.43;;;;;;;8.35;65.42;102752.69;5003150;28;20232;-54
2022/03/10 10:15:36;;;;;;;23.93;16.13;;;;;;;8.17;66.24;102754.56;5004410;28;20233;-53
2022/03/10 10:18:03;;;;;;;22.13;15.37;;;;;;;8.10;66.40;102749.06;5003806;28;20272;-53
2022/03/10 10:20:46;;;;;;;22.23;16.43;;;;;;;8.04;67.08;102764.53;5004932;28;20624;-54
2022/03/10 10:23:17;;;;;;;25.27;15.43;;;;;;;7.82;68.02;102761.81;5012948;28;20228;-55
2022/03/10 10:25:51;;;;;;;24.97;17.10;;;;;;;7.84;68.30;102755.84;4996391;28;20228;-54
2022/03/10 10:28:23;;;;;;;22.07;15.73;;;;;;;8.04;67.56;102759.31;5003240;28;20252;-55
2022/03/10 10:30:54;;;;;;;24.47;16.17;;;;;;;8.21;67.30;102766.94;5001708;28;20233;-57
2022/03/10 10:33:20;;;;;;;22.50;15.23;;;;;;;8.49;66.34;102763.75;5006455;28;20724;-53
2022/03/10 10:35:48;;;;;;;24.43;16.57;;;;;;;8.59;65.71;102756.34;5004946;28;20225;-52
2022/03/10 10:38:28;;;;;;;20.50;16.07;;;;;;;8.52;66.08;102753.41;5004693;28;20233;-54
2022/03/10 10:41:15;;;;;;;26.23;15.93;;;;;;;8.30;67.00;102773.47;5002877;28;20355;-53
2022/03/10 10:43:42;;;;;;;23.17;15.63;;;;;;;8.13;67.47;102767.53;4995946;28;20236;-55
2022/03/10 10:46:08;;;;;;;25.20;16.93;;;;;;;8.24;67.82;102761.84;5003812;28;20225;-53
2022/03/10 10:48:45;;;;;;;19.27;15.37;;;;;;;8.37;66.54;102761.53;5002554;28;20357;-53
2022/03/10 10:51:13;;;;;;;19.53;14.87;;;;;;;8.18;67.32;102765.13;5002917;28;20241;-54
2022/03/10 10:53:40;;;;;;;20.33;14.97;;;;;;;8.47;66.94;102755.88;5002826;28;21019;-55
2022/03/10 10:56:06;;;;;;;23.03;15.87;;;;;;;8.39;65.96;102756.38;5001663;28;20237;-53
2022/03/10 10:58:33;;;;;;;22.87;14.10;;;;;;;8.26;66.19;102755.84;5003933;28;20237;-53
2022/03/10 11:00:59;;;;;;;18.27;13.90;;;;;;;8.17;66.38;102747.63;4999000;28;20260;-53
2022/03/10 11:03:28;;;;;;;20.23;14.37;;;;;;;8.15;66.56;102753.63;5002865;28;20323;-54
2022/03/10 11:05:55;;;;;;;19.10;13.70;;;;;;;8.12;66.32;102750.06;5002498;28;20279;-52
2022/03/10 11:08:23;;;;;;;19.33;14.47;;;;;;;8.04;66.67;102756.69;5003541;28;20243;-53
2022/03/10 11:10:50;;;;;;;19.33;13.73;;;;;;;8.06;66.31;102747.16;5003826;28;20241;-53
2022/03/10 11:13:17;;;;;;;16.17;13.10;;;;;;;7.90;66.50;102747.38;5004692;28;20237;-54
2022/03/10 11:15:44;;;;;;;16.57;13.30;;;;;;;7.99;66.29;102742.50;4996824;28;20253;-53
2022/03/10 11:18:12;;;;;;;19.93;13.77;;;;;;;8.34;64.70;102743.06;5003491;28;20331;-54
2022/03/10 11:20:40;;;;;;;16.13;12.50;;;;;;;8.56;63.55;102745.78;5004494;28;20825;-54
2022/03/10 11:23:15;;;;;;;16.40;13.77;;;;;;;8.46;63.02;102743.63;5003184;28;20251;-55